Barnet — 3FBQ2 — position and weather

sailwx.info

Track history (hours):
 
Tides and Currents Weather Stations Pressure Air Temp Water Temp Dewpoint Dewpoint Depression Visibility Wind Speed Wind Dir Waves Ship Positions

Barnet

Last reported at 2018-Aug-15 08:03 UTC. Time now 2018-Aug-17 11:42 UTC.
Position N 45°05' E 036°31'.

Length 140 m; draft 3.2 m.

Type: Cargo ship. MMSI: 355691000.

Date/timePositionNaut miles runAvg speedWind from/ knotsBaromVisibWave heightAir tempDewpointWater temp
2018-Aug-15 08:03N 45°05' E 036°31'0 0.0
2018-Aug-15 08:00N 45°05' E 036°31'0 0.0
2018-Aug-15 07:23N 45°05' E 036°31'0 0.0
2018-Aug-15 07:01N 45°05' E 036°31'0 0.0
2018-Aug-15 06:19N 45°05' E 036°31'0 0.0
2018-Aug-15 06:00N 45°05' E 036°31'0 0.0
2018-Aug-15 05:24N 45°05' E 036°31'78 6.3
2018-Aug-14 16:57N 43°48' E 036°55'3 6.4
2018-Aug-14 16:30N 43°46' E 036°56'4 6.4
2018-Aug-14 15:57N 43°42' E 036°58'  
2018-Aug-09 01:48N 44°20' E 037°36'3 6.7
2018-Aug-09 01:17N 44°22' E 037°32'70 5.9
2018-Aug-08 13:26N 45°15' E 036°28'3 6.7
2018-Aug-08 12:59N 45°18' E 036°30'4 8.7
2018-Aug-08 12:30N 45°20' E 036°35'4 7.9
2018-Aug-08 12:00N 45°22' E 036°40'3 5.4
2018-Aug-08 11:30N 45°25' E 036°41'3 5.5
2018-Aug-08 11:00N 45°27' E 036°39'2 0.9
2018-Aug-08 08:48N 45°29' E 036°37'0 0.0
2018-Aug-08 08:30N 45°29' E 036°37'0 0.0
2018-Aug-08 06:51N 45°29' E 036°37'0 0.8
2018-Aug-08 06:28N 45°29' E 036°38'3 5.9
2018-Aug-08 06:00N 45°29' E 036°41'  
Track history (hours):
 
Tides and Currents Weather Stations Pressure Air Temp Water Temp Dewpoint Dewpoint Depression Visibility Wind Speed Wind Dir Waves Ship Positions

Barnet

Last reported at 2018-Aug-15 08:03 UTC. Time now 2018-Aug-17 11:42 UTC.
Position N 45°05' E 036°31'.

Length 140 m; draft 3.2 m.

Type: Cargo ship. MMSI: 355691000.

Date/timePositionNaut miles runAvg speedWind from/ knotsBaromVisibWave heightAir tempDewpointWater temp
2018-Aug-15 08:03N 45°05' E 036°31'0 0.0
2018-Aug-15 08:00N 45°05' E 036°31'0 0.0
2018-Aug-15 07:23N 45°05' E 036°31'0 0.0
2018-Aug-15 07:01N 45°05' E 036°31'0 0.0
2018-Aug-15 06:19N 45°05' E 036°31'0 0.0
2018-Aug-15 06:00N 45°05' E 036°31'0 0.0
2018-Aug-15 05:24N 45°05' E 036°31'78 6.3
2018-Aug-14 16:57N 43°48' E 036°55'3 6.4
2018-Aug-14 16:30N 43°46' E 036°56'4 6.4
2018-Aug-14 15:57N 43°42' E 036°58'  
2018-Aug-09 01:48N 44°20' E 037°36'3 6.7
2018-Aug-09 01:17N 44°22' E 037°32'70 5.9
2018-Aug-08 13:26N 45°15' E 036°28'3 6.7
2018-Aug-08 12:59N 45°18' E 036°30'4 8.7
2018-Aug-08 12:30N 45°20' E 036°35'4 7.9
2018-Aug-08 12:00N 45°22' E 036°40'3 5.4
2018-Aug-08 11:30N 45°25' E 036°41'3 5.5
2018-Aug-08 11:00N 45°27' E 036°39'2 0.9
2018-Aug-08 08:48N 45°29' E 036°37'0 0.0
2018-Aug-08 08:30N 45°29' E 036°37'0 0.0
2018-Aug-08 06:51N 45°29' E 036°37'0 0.8
2018-Aug-08 06:28N 45°29' E 036°38'3 5.9
2018-Aug-08 06:00N 45°29' E 036°41'  

Dump ship's entire track history